createdAt,value
2019-06-07T00:00:39.585Z,8.40
2019-06-07T00:01:09.546Z,8.93
2019-06-07T00:01:43.703Z,7.45
2019-06-07T00:02:18.636Z,6.42
2019-06-07T00:02:53.518Z,7.70
2019-06-07T00:03:30.218Z,7.10
2019-06-07T00:04:02.987Z,7.62
2019-06-07T00:04:36.854Z,7.08
2019-06-07T00:05:14.944Z,6.42
2019-06-07T00:05:46.134Z,7.25
2019-06-07T00:06:24.597Z,10.32
2019-06-07T00:06:55.616Z,6.90
2019-06-07T00:07:29.100Z,7.12
2019-06-07T00:08:07.421Z,8.43
2019-06-07T00:08:38.546Z,7.80
2019-06-07T00:09:14.202Z,7.47
2019-06-07T00:09:47.531Z,7.37
2019-06-07T00:10:35.841Z,7.00
2019-06-07T00:10:56.615Z,10.45
2019-06-07T00:11:30.490Z,8.10
2019-06-07T00:12:04.918Z,8.15
2019-06-07T00:12:38.395Z,7.35
2019-06-07T00:13:15.122Z,7.20
2019-06-07T00:13:47.843Z,13.65
2019-06-07T00:14:21.415Z,7.95
2019-06-07T00:14:55.362Z,9.00
2019-06-07T00:15:29.415Z,8.43
2019-06-07T00:16:03.266Z,7.03
2019-06-07T00:16:37.303Z,7.80
2019-06-07T00:17:15.109Z,7.62
2019-06-07T00:17:47.058Z,9.15
2019-06-07T00:18:25.946Z,8.30
2019-06-07T00:18:56.513Z,8.63
2019-06-07T00:19:30.006Z,7.80
2019-06-07T00:20:03.918Z,8.65
2019-06-07T00:20:37.785Z,8.35
2019-06-07T00:21:11.866Z,7.58
2019-06-07T00:22:32.174Z,8.08
2019-06-07T00:22:57.344Z,8.38
2019-06-07T00:23:31.214Z,9.43
2019-06-07T00:24:05.365Z,9.13
2019-06-07T00:24:38.903Z,11.00
2019-06-07T00:25:17.356Z,9.18
2019-06-07T00:25:48.534Z,8.75
2019-06-07T00:26:22.016Z,9.30
2019-06-07T00:26:58.821Z,10.35
2019-06-07T00:27:32.090Z,8.20
2019-06-07T00:28:05.669Z,8.88
2019-06-07T00:28:39.542Z,9.63
2019-06-07T00:29:15.376Z,8.50
2019-06-07T00:29:48.612Z,9.23
2019-06-07T00:30:44.586Z,9.73
2019-06-07T00:30:58.675Z,8.43
2019-06-07T00:31:32.161Z,8.73
2019-06-07T00:32:06.082Z,7.50
2019-06-07T00:32:39.941Z,7.75
2019-06-07T00:33:16.914Z,9.08
2019-06-07T00:33:49.009Z,8.75
2019-06-07T00:34:24.835Z,12.95
2019-06-07T00:34:58.163Z,8.38
2019-06-07T00:35:32.034Z,18.30
2019-06-07T00:36:05.930Z,9.15
2019-06-07T00:36:39.416Z,8.68
2019-06-07T00:37:14.220Z,8.80
2019-06-07T00:37:48.750Z,10.13
2019-06-07T00:38:22.297Z,7.53
2019-06-07T00:38:56.191Z,9.00
2019-06-07T00:39:30.046Z,14.43
2019-06-07T00:40:14.262Z,8.08
2019-06-07T00:40:39.169Z,8.13
2019-06-07T00:41:14.975Z,10.82
2019-06-07T00:41:48.238Z,11.25
2019-06-07T00:42:24.088Z,8.38
2019-06-07T00:42:57.641Z,8.00
2019-06-07T00:43:31.117Z,8.05
2019-06-07T00:44:05.096Z,9.03
2019-06-07T00:44:38.957Z,8.20
2019-06-07T00:45:17.916Z,7.92
2019-06-07T00:45:48.473Z,10.98
2019-06-07T00:46:25.289Z,9.40
2019-06-07T00:46:57.445Z,8.48
2019-06-07T00:47:31.340Z,8.70
2019-06-07T00:48:05.314Z,8.50
2019-06-07T00:48:39.234Z,10.60
2019-06-07T00:49:29.024Z,11.53
2019-06-07T00:49:48.686Z,8.60
2019-06-07T00:50:24.194Z,8.18
2019-06-07T00:50:57.754Z,9.35
2019-06-07T00:51:49.549Z,9.25
2019-06-07T00:52:06.815Z,7.60
2019-06-07T00:53:26.942Z,8.53
2019-06-07T00:53:51.900Z,7.50
2019-06-07T00:54:25.751Z,8.43
2019-06-07T00:54:59.609Z,8.20
2019-06-07T00:55:33.078Z,8.30
2019-06-07T00:56:06.954Z,8.65
2019-06-07T00:56:40.824Z,7.85
2019-06-07T00:57:16.667Z,8.63
2019-06-07T00:57:50.592Z,9.75
2019-06-07T00:58:27.908Z,8.55
2019-06-07T00:59:10.716Z,8.85
2019-06-07T00:59:35.417Z,8.55
2019-06-07T01:00:12.289Z,9.40
2019-06-07T01:00:46.098Z,8.00
2019-06-07T01:01:22.143Z,7.80
2019-06-07T01:01:55.553Z,10.15
2019-06-07T01:02:31.588Z,7.95
2019-06-07T01:03:04.722Z,7.90
2019-06-07T01:03:38.594Z,8.55
2019-06-07T01:04:13.155Z,8.28
2019-06-07T01:04:47.978Z,8.08
2019-06-07T01:05:26.204Z,8.30
2019-06-07T01:05:57.046Z,8.15
2019-06-07T01:06:31.696Z,12.70
2019-06-07T01:07:05.566Z,7.42
2019-06-07T01:07:39.147Z,8.70
2019-06-07T01:08:14.947Z,8.10
2019-06-07T01:08:48.789Z,8.03
2019-06-07T01:09:23.907Z,8.95
2019-06-07T01:09:57.771Z,8.98
2019-06-07T01:10:52.382Z,9.98
2019-06-07T01:11:06.841Z,8.48
2019-06-07T01:11:40.718Z,8.58
2019-06-07T01:12:18.111Z,7.95
2019-06-07T01:12:49.792Z,8.45
2019-06-07T01:13:26.212Z,8.30
2019-06-07T01:13:59.271Z,8.23
2019-06-07T01:14:32.745Z,9.88
2019-06-07T01:15:07.354Z,11.20
2019-06-07T01:15:41.217Z,7.90
2019-06-07T01:16:16.183Z,7.87
2019-06-07T01:16:57.329Z,8.53
2019-06-07T01:17:40.061Z,7.90
2019-06-07T01:18:43.435Z,9.65
2019-06-07T01:19:13.856Z,8.95
2019-06-07T01:19:48.168Z,8.23
2019-06-07T01:20:24.205Z,8.70
2019-06-07T01:20:57.730Z,9.08
2019-06-07T01:21:31.209Z,9.28
2019-06-07T01:22:05.158Z,8.30
2019-06-07T01:22:39.059Z,10.48
2019-06-07T01:23:57.902Z,9.05
2019-06-07T01:24:08.889Z,10.00
2019-06-07T01:24:25.770Z,11.12
2019-06-07T01:24:59.502Z,8.48
2019-06-07T01:25:33.363Z,11.15
2019-06-07T01:26:07.284Z,9.73
2019-06-07T01:26:40.914Z,9.88
2019-06-07T01:27:16.696Z,9.95
2019-06-07T01:27:50.374Z,8.78
2019-06-07T01:28:26.797Z,9.45
2019-06-07T01:28:59.844Z,9.75
2019-06-07T01:29:33.695Z,9.15
2019-06-07T01:30:08.418Z,9.50
2019-06-07T01:30:42.287Z,10.38
2019-06-07T01:31:19.216Z,10.10
2019-06-07T01:31:51.362Z,11.05
2019-06-07T01:32:27.159Z,9.60
2019-06-07T01:33:00.868Z,9.00
2019-06-07T01:33:50.237Z,9.18
2019-06-07T01:34:09.962Z,9.60
2019-06-07T01:34:43.834Z,11.15
2019-06-07T01:35:20.268Z,9.58
2019-06-07T01:35:52.843Z,9.68
2019-06-07T01:36:29.526Z,9.88
2019-06-07T01:37:01.913Z,9.13
2019-06-07T01:37:35.774Z,9.70
2019-06-07T01:38:09.665Z,9.33
2019-06-07T01:38:43.281Z,9.98
2019-06-07T01:39:18.702Z,9.25
2019-06-07T01:39:52.740Z,8.20
2019-06-07T01:40:30.454Z,8.98
2019-06-07T01:41:01.738Z,9.28
2019-06-07T01:41:35.601Z,9.90
2019-06-07T01:42:09.114Z,9.60
2019-06-07T01:42:43.021Z,9.80
2019-06-07T01:43:17.077Z,9.60
2019-06-07T01:43:50.773Z,10.00
2019-06-07T01:44:27.823Z,9.60
2019-06-07T01:45:00.311Z,9.50
2019-06-07T01:45:33.782Z,8.90
2019-06-07T01:46:07.642Z,9.78
2019-06-07T01:46:41.523Z,10.23
2019-06-07T01:47:15.144Z,9.10
2019-06-07T01:47:49.014Z,9.80
2019-06-07T01:48:29.564Z,10.08
2019-06-07T01:48:59.111Z,8.63
2019-06-07T01:49:32.973Z,9.83
2019-06-07T01:50:06.967Z,9.48
2019-06-07T01:50:40.441Z,9.55
2019-06-07T01:51:14.327Z,10.35
2019-06-07T01:51:48.207Z,9.40
2019-06-07T01:52:23.510Z,9.78
2019-06-07T01:52:57.347Z,10.03
2019-06-07T01:53:32.198Z,10.90
2019-06-07T01:54:49.485Z,9.50
2019-06-07T01:54:56.065Z,9.30
2019-06-07T01:55:18.973Z,9.23
2019-06-07T01:55:52.259Z,8.33
2019-06-07T01:56:28.279Z,10.20
2019-06-07T01:57:01.749Z,9.80
2019-06-07T01:57:47.502Z,9.00
2019-06-07T01:58:10.780Z,9.63
2019-06-07T01:58:44.674Z,9.25
2019-06-07T01:59:21.457Z,9.58
2019-06-07T01:59:53.736Z,9.45
2019-06-07T02:00:31.917Z,9.00
2019-06-07T02:01:03.122Z,10.72
2019-06-07T02:01:37.029Z,10.95
2019-06-07T02:02:10.982Z,9.75
2019-06-07T02:02:44.517Z,10.38
2019-06-07T02:03:19.191Z,9.45
2019-06-07T02:03:54.059Z,9.50
2019-06-07T02:04:32.430Z,8.03
2019-06-07T02:05:03.121Z,8.25
2019-06-07T02:05:37.023Z,9.78
2019-06-07T02:06:10.505Z,12.15
2019-06-07T02:06:44.394Z,10.13
2019-06-07T02:07:20.413Z,9.53
2019-06-07T02:07:53.477Z,10.68
2019-06-07T02:08:33.538Z,8.90
2019-06-07T02:09:03.926Z,9.05
2019-06-07T02:09:37.405Z,8.28
2019-06-07T02:10:11.476Z,8.43
2019-06-07T02:10:45.345Z,9.75
2019-06-07T02:11:20.931Z,7.97
2019-06-07T02:11:54.338Z,8.48
2019-06-07T02:12:40.351Z,7.72
2019-06-07T02:13:03.332Z,8.28
2019-06-07T02:13:37.199Z,10.45
2019-06-07T02:14:11.104Z,9.10
2019-06-07T02:14:44.632Z,7.97
2019-06-07T02:15:21.703Z,7.75
2019-06-07T02:15:54.750Z,8.48
2019-06-07T02:16:31.978Z,7.33
2019-06-07T02:17:03.890Z,7.10
2019-06-07T02:17:37.814Z,7.60
2019-06-07T02:18:11.284Z,8.83
2019-06-07T02:19:01.208Z,9.40
2019-06-07T02:19:21.984Z,7.33
2019-06-07T02:19:55.801Z,7.47
2019-06-07T02:20:33.469Z,10.13
2019-06-07T02:21:05.324Z,7.62
2019-06-07T02:21:38.821Z,7.12
2019-06-07T02:22:12.694Z,9.08
2019-06-07T02:22:46.568Z,7.35
2019-06-07T02:23:20.676Z,7.25
2019-06-07T02:23:56.059Z,7.33
2019-06-07T02:24:35.145Z,6.80
2019-06-07T02:25:35.075Z,6.20
2019-06-07T02:25:48.431Z,7.47
2019-06-07T02:26:16.792Z,6.72
2019-06-07T02:26:50.265Z,7.42
2019-06-07T02:27:24.682Z,8.38
2019-06-07T02:28:26.081Z,8.60
2019-06-07T02:28:44.915Z,6.33
2019-06-07T02:29:10.429Z,8.50
2019-06-07T02:29:44.294Z,9.18
2019-06-07T02:30:40.194Z,6.30
2019-06-07T02:31:00.067Z,9.40
2019-06-07T02:31:38.265Z,8.88
2019-06-07T02:32:04.341Z,6.40
2019-06-07T02:32:38.212Z,7.58
2019-06-07T02:33:12.076Z,7.10
2019-06-07T02:33:45.563Z,5.72
2019-06-07T02:34:19.447Z,6.33
2019-06-07T02:34:53.310Z,6.58
2019-06-07T02:35:34.760Z,5.45
2019-06-07T02:36:02.554Z,5.72
2019-06-07T02:36:41.250Z,6.53
2019-06-07T02:37:11.779Z,7.15
2019-06-07T02:37:45.646Z,4.85
2019-06-07T02:38:19.567Z,8.00
2019-06-07T02:38:53.104Z,5.70
2019-06-07T02:39:28.777Z,5.72
2019-06-07T02:40:03.156Z,9.30
2019-06-07T02:40:37.492Z,7.42
2019-06-07T02:41:11.673Z,8.18
2019-06-07T02:41:45.554Z,5.40
2019-06-07T02:42:19.027Z,5.00
2019-06-07T02:42:52.890Z,6.20
2019-06-07T02:43:28.330Z,6.30
2019-06-07T02:44:01.974Z,8.55
2019-06-07T02:44:39.697Z,6.80
2019-06-07T02:45:11.666Z,6.90
2019-06-07T02:45:45.146Z,5.95
2019-06-07T02:46:35.293Z,5.80
2019-06-07T02:47:01.259Z,6.35
2019-06-07T02:47:37.648Z,5.50
2019-06-07T02:48:10.402Z,9.15
2019-06-07T02:48:44.270Z,6.87
2019-06-07T02:49:18.183Z,9.25
2019-06-07T02:49:52.051Z,5.55
2019-06-07T02:50:28.324Z,5.28
2019-06-07T02:51:01.126Z,5.55
2019-06-07T02:51:41.125Z,6.03
2019-06-07T02:52:10.652Z,7.97
2019-06-07T02:52:44.118Z,9.43
2019-06-07T02:53:17.974Z,5.50
2019-06-07T02:53:51.842Z,5.15
2019-06-07T02:54:27.390Z,4.78
2019-06-07T02:55:01.152Z,5.37
2019-06-07T02:56:26.482Z,5.67
2019-06-07T02:56:37.888Z,6.42
2019-06-07T02:56:57.954Z,7.72
2019-06-07T02:57:25.734Z,5.75
2019-06-07T02:57:58.804Z,8.53
2019-06-07T02:58:40.632Z,4.55
2019-06-07T02:59:08.335Z,5.40
2019-06-07T03:00:05.210Z,4.72
2019-06-07T03:01:07.854Z,5.42
2019-06-07T03:01:39.383Z,5.15
2019-06-07T03:02:09.970Z,7.80
2019-06-07T03:02:43.850Z,5.00
2019-06-07T03:03:17.528Z,5.37
2019-06-07T03:03:51.409Z,9.33
2019-06-07T03:04:27.173Z,4.42
2019-06-07T03:05:00.785Z,4.87
2019-06-07T03:05:38.768Z,4.65
2019-06-07T03:06:11.587Z,6.03
2019-06-07T03:06:47.039Z,4.08
2019-06-07T03:07:21.701Z,8.00
2019-06-07T03:07:55.559Z,5.72
2019-06-07T03:08:30.965Z,5.10
2019-06-07T03:09:08.137Z,5.05
2019-06-07T03:09:42.384Z,5.12
2019-06-07T03:10:16.119Z,7.03
2019-06-07T03:10:50.605Z,4.45
2019-06-07T03:11:25.539Z,3.98
2019-06-07T03:12:00.432Z,5.70
2019-06-07T03:12:35.599Z,7.47
2019-06-07T03:13:11.062Z,4.55
2019-06-07T03:13:46.265Z,4.20
2019-06-07T03:14:21.471Z,6.60
2019-06-07T03:14:56.175Z,7.03
2019-06-07T03:15:39.811Z,5.37
2019-06-07T03:16:06.974Z,6.22
2019-06-07T03:16:46.500Z,7.55
2019-06-07T03:17:58.980Z,4.78
2019-06-07T03:18:50.242Z,4.67
2019-06-07T03:19:37.895Z,4.40
2019-06-07T03:20:12.379Z,6.25
2019-06-07T03:21:04.661Z,5.28
2019-06-07T03:21:24.690Z,8.88
2019-06-07T03:21:58.984Z,4.30
2019-06-07T03:22:37.994Z,4.08
2019-06-07T03:23:08.689Z,6.28
2019-06-07T03:23:44.081Z,4.75
2019-06-07T03:24:17.994Z,6.67
2019-06-07T03:24:51.513Z,5.12
2019-06-07T03:25:28.175Z,4.45
2019-06-07T03:26:04.219Z,6.20
2019-06-07T03:27:30.344Z,4.10
2019-06-07T03:27:50.397Z,4.65
2019-06-07T03:28:24.530Z,4.80
2019-06-07T03:28:58.411Z,4.30
2019-06-07T03:29:33.828Z,6.17
2019-06-07T03:30:35.876Z,4.10
2019-06-07T03:31:00.800Z,4.72
2019-06-07T03:31:18.901Z,7.47
2019-06-07T03:31:52.403Z,5.72
2019-06-07T03:32:29.212Z,5.20
2019-06-07T03:33:01.853Z,4.00
2019-06-07T03:33:41.558Z,6.40
2019-06-07T03:34:11.076Z,4.67
2019-06-07T03:34:45.441Z,9.90
2019-06-07T03:35:18.925Z,4.78
2019-06-07T03:35:52.797Z,6.58
2019-06-07T03:36:27.525Z,4.10
2019-06-07T03:37:01.234Z,5.47
2019-06-07T03:37:40.743Z,6.05
2019-06-07T03:38:10.731Z,5.47
2019-06-07T03:38:44.226Z,6.28
2019-06-07T03:39:18.156Z,6.42
2019-06-07T03:39:52.014Z,4.22
2019-06-07T03:40:26.685Z,7.00
2019-06-07T03:41:00.855Z,3.45
2019-06-07T03:41:42.005Z,4.60
2019-06-07T03:42:09.940Z,5.37
2019-06-07T03:42:43.826Z,6.22
2019-06-07T03:43:17.701Z,3.90
2019-06-07T03:43:51.186Z,6.10
2019-06-07T03:44:25.039Z,3.75
2019-06-07T03:44:59.178Z,3.70
2019-06-07T03:45:35.158Z,5.28
2019-06-07T03:46:08.341Z,4.62
2019-06-07T03:46:42.205Z,4.30
2019-06-07T03:47:15.680Z,4.72
2019-06-07T03:47:49.532Z,8.20
2019-06-07T03:48:23.404Z,7.95
2019-06-07T03:48:56.896Z,3.50
2019-06-07T03:49:35.259Z,4.33
2019-06-07T03:50:06.981Z,4.75
2019-06-07T03:50:42.435Z,3.80
2019-06-07T03:51:24.806Z,3.58
2019-06-07T03:51:51.638Z,4.92
2019-06-07T03:52:25.118Z,4.60
2019-06-07T03:52:59.021Z,3.80
2019-06-07T03:53:34.814Z,3.65
2019-06-07T03:54:08.226Z,3.85
2019-06-07T03:54:42.099Z,9.23
2019-06-07T03:55:15.982Z,3.40
2019-06-07T03:55:49.453Z,7.97
2019-06-07T03:56:23.310Z,4.58
2019-06-07T03:56:57.175Z,4.05
2019-06-07T03:58:15.077Z,7.45
2019-06-07T03:58:49.640Z,2.90
2019-06-07T03:59:17.034Z,3.67
2019-06-07T03:59:50.907Z,4.17
2019-06-07T04:00:25.101Z,4.00
2019-06-07T04:01:01.954Z,3.58
2019-06-07T04:01:34.825Z,5.25
2019-06-07T04:02:09.531Z,4.33
2019-06-07T04:02:43.015Z,5.78
2019-06-07T04:03:33.103Z,3.22
2019-06-07T04:03:52.488Z,3.27
2019-06-07T04:04:25.882Z,6.22
2019-06-07T04:05:00.135Z,7.67
2019-06-07T04:05:38.835Z,7.05
2019-06-07T04:06:10.314Z,5.80
2019-06-07T04:06:44.521Z,3.67
2019-06-07T04:07:21.618Z,4.83
2019-06-07T04:07:55.033Z,4.65
2019-06-07T04:08:30.645Z,6.92
2019-06-07T04:09:05.509Z,3.50
2019-06-07T04:09:42.472Z,5.80
2019-06-07T04:10:14.714Z,3.67
2019-06-07T04:10:59.811Z,3.70
2019-06-07T04:11:23.850Z,4.58
2019-06-07T04:11:57.708Z,6.65
2019-06-07T04:12:34.282Z,5.05
2019-06-07T04:13:06.849Z,2.75
2019-06-07T04:13:42.771Z,3.20
2019-06-07T04:14:16.236Z,3.15
2019-06-07T04:14:49.710Z,3.15
2019-06-07T04:15:23.597Z,3.20
2019-06-07T04:15:57.376Z,4.58
2019-06-07T04:16:35.045Z,8.73
2019-06-07T04:17:06.443Z,9.00
2019-06-07T04:18:00.489Z,3.60
2019-06-07T04:18:15.513Z,7.08
2019-06-07T04:18:49.381Z,4.15
2019-06-07T04:19:23.570Z,5.53
2019-06-07T04:19:57.045Z,3.35
2019-06-07T04:20:33.875Z,5.37
2019-06-07T04:21:06.955Z,9.28
2019-06-07T04:21:42.812Z,3.15
2019-06-07T04:22:15.941Z,3.77
2019-06-07T04:22:49.822Z,3.92
2019-06-07T04:23:29.985Z,3.87
2019-06-07T04:23:58.918Z,4.12
2019-06-07T04:24:34.680Z,5.95
2019-06-07T04:25:08.496Z,5.15
2019-06-07T04:25:42.869Z,6.65
2019-06-07T04:26:16.929Z,2.85
2019-06-07T04:26:50.409Z,4.05
2019-06-07T04:27:24.279Z,6.47
2019-06-07T04:27:58.174Z,4.55
2019-06-07T04:29:26.052Z,4.05
2019-06-07T04:30:05.223Z,3.40
2019-06-07T04:30:21.311Z,9.40
2019-06-07T04:30:55.221Z,6.90
2019-06-07T04:31:29.083Z,4.22
2019-06-07T04:32:04.453Z,3.25
2019-06-07T04:32:40.640Z,7.67
2019-06-07T04:33:14.941Z,3.47
2019-06-07T04:33:48.891Z,4.10
2019-06-07T04:34:22.762Z,2.55
2019-06-07T04:34:56.627Z,6.00
2019-06-07T04:35:31.369Z,5.60
2019-06-07T04:36:05.704Z,2.92
2019-06-07T04:36:55.197Z,3.85
2019-06-07T04:37:16.181Z,4.50
2019-06-07T04:37:50.146Z,7.03
2019-06-07T04:38:24.338Z,2.90
2019-06-07T04:38:58.315Z,5.25
2019-06-07T04:39:35.835Z,3.60
2019-06-07T04:40:09.197Z,3.50
2019-06-07T04:40:43.328Z,3.58
2019-06-07T04:41:18.870Z,6.00
2019-06-07T04:41:54.246Z,3.08
2019-06-07T04:42:29.980Z,2.83
2019-06-07T04:43:04.751Z,4.30
2019-06-07T04:43:41.129Z,3.62
2019-06-07T04:44:15.567Z,3.67
2019-06-07T04:44:50.351Z,3.10
2019-06-07T04:45:33.758Z,3.58
2019-06-07T04:46:01.362Z,7.35
2019-06-07T04:46:39.868Z,2.72
2019-06-07T04:47:11.346Z,3.02
2019-06-07T04:47:45.127Z,3.95
2019-06-07T04:48:20.287Z,3.33
2019-06-07T04:48:54.358Z,3.37
2019-06-07T04:49:29.756Z,8.45
2019-06-07T04:50:03.775Z,4.08
2019-06-07T04:50:41.133Z,5.33
2019-06-07T04:51:14.495Z,6.83
2019-06-07T04:51:49.435Z,3.30
2019-06-07T04:52:23.361Z,5.62
2019-06-07T04:52:56.833Z,4.35
2019-06-07T04:53:34.434Z,5.33
2019-06-07T04:54:06.295Z,4.53
2019-06-07T04:54:45.553Z,2.90
2019-06-07T04:55:15.365Z,4.47
2019-06-07T04:55:49.259Z,4.55
2019-06-07T04:56:23.253Z,4.70
2019-06-07T04:56:57.126Z,3.10
2019-06-07T04:57:33.488Z,3.58
2019-06-07T04:58:06.282Z,5.20
2019-06-07T04:58:41.314Z,3.72
2019-06-07T05:00:00.060Z,8.65
2019-06-07T05:00:11.948Z,4.45
2019-06-07T05:01:24.419Z,5.15
2019-06-07T05:01:42.774Z,3.75
2019-06-07T05:02:16.913Z,4.95
2019-06-07T05:02:50.844Z,3.62
2019-06-07T05:03:24.347Z,3.10
2019-06-07T05:03:58.206Z,4.70
2019-06-07T05:04:33.179Z,6.03
2019-06-07T05:05:07.274Z,3.10
2019-06-07T05:05:43.570Z,6.22
2019-06-07T05:06:16.940Z,3.95
2019-06-07T05:06:50.501Z,4.05
2019-06-07T05:07:24.299Z,5.47
2019-06-07T05:07:58.373Z,4.08
2019-06-07T05:08:33.461Z,5.65
2019-06-07T05:09:07.421Z,2.72
2019-06-07T05:09:43.349Z,5.30
2019-06-07T05:10:16.523Z,3.33
2019-06-07T05:10:50.467Z,5.05
2019-06-07T05:11:24.768Z,9.18
2019-06-07T05:11:58.314Z,4.00
2019-06-07T05:12:32.703Z,6.55
2019-06-07T05:13:07.786Z,6.55
2019-06-07T05:13:43.811Z,4.50
2019-06-07T05:14:16.862Z,4.40
2019-06-07T05:14:50.661Z,3.33
2019-06-07T05:15:24.245Z,5.35
2019-06-07T05:15:58.117Z,4.05
2019-06-07T05:16:35.210Z,6.20
2019-06-07T05:17:07.418Z,3.65
2019-06-07T05:17:43.446Z,3.55
2019-06-07T05:18:16.953Z,2.95
2019-06-07T05:18:50.463Z,4.22
2019-06-07T05:19:24.330Z,3.02
2019-06-07T05:19:58.215Z,6.75
2019-06-07T05:20:33.636Z,2.90
2019-06-07T05:21:09.799Z,3.58
2019-06-07T05:22:02.485Z,4.87
2019-06-07T05:22:19.153Z,3.50
2019-06-07T05:22:53.018Z,3.22
2019-06-07T05:24:02.502Z,4.28
2019-06-07T05:24:09.698Z,4.58
2019-06-07T05:24:38.925Z,3.60
2019-06-07T05:25:13.325Z,5.25
2019-06-07T05:25:46.853Z,2.65
2019-06-07T05:26:20.736Z,5.28
2019-06-07T05:26:55.002Z,7.45
2019-06-07T05:27:33.596Z,2.70
2019-06-07T05:28:05.367Z,6.53
2019-06-07T05:28:41.312Z,2.83
2019-06-07T05:29:15.734Z,4.85
2019-06-07T05:30:08.926Z,4.75
2019-06-07T05:31:08.406Z,3.30
2019-06-07T05:31:45.504Z,3.72
2019-06-07T05:32:19.067Z,6.45
2019-06-07T05:32:52.636Z,2.02
2019-06-07T05:33:26.541Z,4.25
2019-06-07T05:34:00.461Z,4.83
2019-06-07T05:34:34.604Z,3.60
2019-06-07T05:35:10.243Z,4.42
2019-06-07T05:35:44.237Z,3.42
2019-06-07T05:36:17.754Z,3.40
2019-06-07T05:37:10.351Z,4.12
2019-06-07T05:37:28.550Z,9.38
2019-06-07T05:38:02.113Z,6.25
2019-06-07T05:38:38.889Z,2.45
2019-06-07T05:39:11.707Z,3.15
2019-06-07T05:39:46.550Z,3.12
2019-06-07T05:40:23.898Z,4.78
2019-06-07T05:40:57.763Z,7.95
2019-06-07T05:41:32.306Z,2.95
2019-06-07T05:42:06.951Z,7.40
2019-06-07T05:42:44.053Z,2.10
2019-06-07T05:43:21.891Z,2.30
2019-06-07T05:44:12.156Z,4.70
2019-06-07T05:44:31.664Z,3.87
2019-06-07T05:45:05.712Z,4.83
2019-06-07T05:45:44.905Z,3.10
2019-06-07T05:46:15.299Z,2.70
2019-06-07T05:46:48.798Z,6.90
2019-06-07T05:47:22.681Z,5.15
2019-06-07T05:47:56.611Z,2.47
2019-06-07T05:48:30.241Z,4.10
2019-06-07T05:49:04.183Z,6.25
2019-06-07T05:49:41.020Z,6.28
2019-06-07T05:50:38.691Z,3.35
2019-06-07T05:50:56.427Z,2.47
2019-06-07T05:51:24.497Z,5.47
2019-06-07T05:51:58.289Z,2.37
2019-06-07T05:52:33.211Z,2.70
2019-06-07T05:53:07.778Z,2.30
2019-06-07T05:53:43.172Z,7.30
2019-06-07T05:54:16.770Z,3.15
2019-06-07T05:54:50.701Z,3.33
2019-06-07T05:55:24.218Z,4.10
2019-06-07T05:55:58.154Z,4.20
2019-06-07T05:56:33.264Z,3.10
2019-06-07T05:57:07.457Z,4.50
2019-06-07T05:57:48.586Z,3.95
2019-06-07T05:58:16.961Z,6.35
2019-06-07T05:58:50.446Z,3.45
2019-06-07T05:59:24.319Z,3.52
2019-06-07T05:59:58.186Z,4.75
2019-06-07T06:00:31.681Z,2.75
2019-06-07T06:01:41.751Z,6.50
2019-06-07T06:01:52.302Z,3.92
2019-06-07T06:02:22.697Z,4.85
2019-06-07T06:03:04.877Z,2.75
2019-06-07T06:03:28.589Z,2.98
2019-06-07T06:04:02.132Z,5.75
2019-06-07T06:04:36.271Z,5.17
2019-06-07T06:05:30.260Z,6.55
2019-06-07T06:05:54.591Z,2.20
2019-06-07T06:06:22.090Z,4.55
2019-06-07T06:06:55.969Z,3.55
2019-06-07T06:07:29.484Z,2.83
2019-06-07T06:08:03.350Z,2.02
2019-06-07T06:08:39.261Z,2.35
2019-06-07T06:09:14.127Z,4.10
2019-06-07T06:09:48.174Z,3.37
2019-06-07T06:10:22.109Z,3.05
2019-06-07T06:10:55.587Z,3.75
2019-06-07T06:11:43.225Z,3.45
2019-06-07T06:12:06.102Z,4.58
2019-06-07T06:12:45.185Z,3.70
2019-06-07T06:13:15.417Z,3.87
2019-06-07T06:14:06.115Z,6.15
2019-06-07T06:14:24.479Z,3.02
2019-06-07T06:14:58.530Z,2.45
2019-06-07T06:15:42.584Z,4.92
2019-06-07T06:16:07.594Z,3.83
2019-06-07T06:16:44.466Z,4.28
2019-06-07T06:17:18.072Z,1.75
2019-06-07T06:17:53.844Z,4.25
2019-06-07T06:18:27.214Z,4.00
2019-06-07T06:19:01.099Z,2.20
2019-06-07T06:19:36.649Z,2.80
2019-06-07T06:20:10.191Z,3.50
2019-06-07T06:21:20.406Z,3.60
2019-06-07T06:21:54.552Z,5.53
2019-06-07T06:22:28.874Z,2.45
2019-06-07T06:23:02.344Z,5.37
2019-06-07T06:23:39.506Z,4.17
2019-06-07T06:24:11.875Z,5.92
2019-06-07T06:25:17.050Z,2.47
2019-06-07T06:25:38.660Z,3.77
2019-06-07T06:25:58.165Z,2.20
2019-06-07T06:26:32.121Z,2.67
2019-06-07T06:27:28.510Z,3.40
2019-06-07T06:28:05.863Z,2.95
2019-06-07T06:28:17.637Z,2.25
2019-06-07T06:28:51.552Z,4.03
2019-06-07T06:29:25.479Z,3.05
2019-06-07T06:29:59.026Z,3.30
2019-06-07T06:30:33.004Z,4.60
2019-06-07T06:31:07.024Z,4.25
2019-06-07T06:31:49.197Z,3.37
2019-06-07T06:32:41.003Z,4.22
2019-06-07T06:32:57.758Z,4.45
2019-06-07T06:33:34.531Z,6.30
2019-06-07T06:34:03.438Z,3.37
2019-06-07T06:34:40.118Z,3.85
2019-06-07T06:35:13.000Z,2.40
2019-06-07T06:35:50.490Z,5.47
2019-06-07T06:36:22.770Z,2.20
2019-06-07T06:36:56.447Z,2.70
2019-06-07T06:37:30.353Z,2.08
2019-06-07T06:38:04.300Z,3.15
2019-06-07T06:38:38.579Z,4.67
2019-06-07T06:39:13.675Z,3.70
2019-06-07T06:39:49.964Z,3.42
2019-06-07T06:40:23.835Z,2.85
2019-06-07T06:41:14.378Z,3.37
2019-06-07T06:41:46.129Z,4.70
2019-06-07T06:42:08.585Z,4.03
2019-06-07T06:42:44.697Z,3.20
2019-06-07T06:43:18.057Z,4.08
2019-06-07T06:43:52.714Z,3.72
2019-06-07T06:44:26.927Z,2.33
2019-06-07T06:45:00.802Z,2.75
2019-06-07T06:45:34.346Z,5.40
2019-06-07T06:46:08.321Z,4.22
2019-06-07T06:46:46.402Z,6.05
2019-06-07T06:47:17.512Z,1.85
2019-06-07T06:47:51.446Z,6.08
2019-06-07T06:48:25.317Z,2.70
2019-06-07T06:48:59.236Z,4.08
2019-06-07T06:49:33.457Z,3.35
2019-06-07T06:50:07.769Z,2.15
2019-06-07T06:50:43.612Z,2.40
2019-06-07T06:51:16.890Z,5.45
2019-06-07T06:51:53.602Z,3.08
2019-06-07T06:52:26.085Z,3.80
2019-06-07T06:53:00.116Z,2.17
2019-06-07T06:53:34.061Z,2.45
2019-06-07T06:54:07.534Z,2.52
2019-06-07T06:54:48.182Z,4.95
2019-06-07T06:55:18.042Z,4.50
2019-06-07T06:55:51.617Z,3.60
2019-06-07T06:56:25.680Z,4.00
2019-06-07T06:57:17.720Z,2.58
2019-06-07T06:57:34.895Z,3.22
2019-06-07T06:58:08.777Z,2.45
2019-06-07T06:59:21.854Z,3.25
2019-06-07T06:59:53.481Z,3.45
2019-06-07T07:00:50.252Z,4.97
2019-06-07T07:01:16.965Z,3.60
2019-06-07T07:01:52.600Z,2.00
2019-06-07T07:02:26.453Z,2.75
2019-06-07T07:03:47.172Z,2.80
2019-06-07T07:03:57.352Z,1.82
2019-06-07T07:04:13.443Z,3.72
2019-06-07T07:04:48.733Z,2.83
2019-06-07T07:05:22.776Z,6.15
2019-06-07T07:05:56.926Z,1.95
2019-06-07T07:06:30.406Z,3.85
2019-06-07T07:07:04.789Z,2.25
2019-06-07T07:07:38.768Z,2.72
2019-06-07T07:08:12.462Z,1.57
2019-06-07T07:08:47.853Z,2.10
2019-06-07T07:09:23.242Z,5.78
2019-06-07T07:09:59.224Z,1.98
2019-06-07T07:10:40.682Z,6.00
2019-06-07T07:11:14.929Z,2.70
2019-06-07T07:12:04.255Z,2.85
2019-06-07T07:12:25.406Z,5.25
2019-06-07T07:13:03.698Z,3.58
2019-06-07T07:13:45.325Z,3.40
2019-06-07T07:14:21.136Z,4.53
2019-06-07T07:14:56.064Z,8.80
2019-06-07T07:15:30.268Z,2.77
2019-06-07T07:16:04.303Z,2.40
2019-06-07T07:16:38.356Z,2.67
2019-06-07T07:17:11.871Z,3.47
2019-06-07T07:17:53.981Z,4.35
2019-06-07T07:18:22.077Z,3.05
2019-06-07T07:18:55.577Z,7.58
2019-06-07T07:19:29.632Z,2.47
2019-06-07T07:20:05.028Z,3.20
2019-06-07T07:20:38.507Z,4.03
2019-06-07T07:21:12.378Z,2.67
2019-06-07T07:21:51.420Z,3.85
2019-06-07T07:22:21.448Z,3.95
2019-06-07T07:22:57.079Z,1.77
2019-06-07T07:23:31.303Z,1.95
2019-06-07T07:24:21.009Z,2.77
2019-06-07T07:24:41.879Z,5.37
2019-06-07T07:25:16.214Z,2.87
2019-06-07T07:25:57.303Z,1.85
2019-06-07T07:26:25.577Z,2.70
2019-06-07T07:26:59.489Z,3.37
2019-06-07T07:27:32.962Z,2.40
2019-06-07T07:28:06.874Z,2.67
2019-06-07T07:28:42.791Z,2.25
2019-06-07T07:29:16.008Z,2.05
2019-06-07T07:29:59.630Z,2.22
2019-06-07T07:30:38.824Z,2.15
2019-06-07T07:31:12.502Z,1.70
2019-06-07T07:31:50.359Z,1.95
2019-06-07T07:32:21.951Z,2.33
2019-06-07T07:32:59.296Z,3.52
2019-06-07T07:34:21.074Z,3.00
2019-06-07T07:34:32.419Z,2.30
2019-06-07T07:34:46.208Z,2.75
2019-06-07T07:35:17.738Z,4.28
2019-06-07T07:36:15.705Z,3.25
2019-06-07T07:36:38.707Z,4.58
2019-06-07T07:37:03.323Z,2.20
2019-06-07T07:37:37.179Z,2.15
2019-06-07T07:38:10.709Z,2.02
2019-06-07T07:38:51.835Z,3.10
2019-06-07T07:39:20.628Z,2.10
2019-06-07T07:40:01.416Z,2.98
2019-06-07T07:40:57.029Z,1.87
2019-06-07T07:41:14.432Z,2.35
2019-06-07T07:41:40.697Z,2.20
2019-06-07T07:42:21.195Z,1.87
2019-06-07T07:42:53.301Z,3.40
2019-06-07T07:43:25.575Z,1.72
2019-06-07T07:44:05.995Z,3.40
2019-06-07T07:44:35.178Z,2.25
2019-06-07T07:45:08.656Z,3.00
2019-06-07T07:45:45.997Z,2.47
2019-06-07T07:46:29.067Z,4.40
2019-06-07T07:46:54.697Z,2.33
2019-06-07T07:47:29.101Z,3.17
2019-06-07T07:48:15.475Z,3.62